AYNZ

Lae Nadzab Airport

Nadzab, Papua New Guinea
METAR AYNZ 200900Z 07015KT 9999 FEW025 SCT040 BKN090 27/22 Q1008 RMK: BUILD UPS IN AREA. DIST RASH TO E-SW
Observed Flight Rules
Nov-20 @ 09:00 UTC (3 hours ago) Visual Flight Rules
Wind Visibility Clouds
70° at 15 knots 10,000+ meters
  • Few at 2,500' AGL
  • Scattered at 4,000' AGL
  • Broken at 9,000' AGL
Temperatures Readings
Current 27°C / 81°F
Dewpoint 22°C / 72°F
Humidity 74%
Altimeter 29.76" Hg
Pressure 1008 hPa
Elevation 70
METAR AYNZ 200900Z 07015KT 9999 FEW025 SCT040 BKN090 27/22 Q1008 RMK: BUILD UPS IN AREA. DIST RASH TO E-SW
Observed Flight Rules
Nov-20 @ 09:00 UTC
(3 hours ago)
VFR
Wind Visibility
70° at 15 knots 10,000+ meters
Clouds
  • Few at 2,500' AGL
  • Scattered at 4,000' AGL
  • Broken at 9,000' AGL
Temperature Dewpoint
27°C / 81°F 22°C / 72°F
Humidity Altimeter Pressure
74% 29.76" Hg 1008 hPa